Time;durP1;ratioP1;P1;durP2;ratioP2;P2;SDS_P1;SDS_P2;PMS_P1;PMS_P2;Temp;Humidity;BMP_temperature;BMP_pressure;BME280_temperature;BME280_humidity;BME280_pressure;Samples;Min_cycle;Max_cycle;Signal;HPM_P1;HPM_P2
2023/05/19 00:01:36;;;;;;;1999.90;999.90;;;;;;;9.94;100.00;95711.47;4997312;28;20251;-63
2023/05/19 00:04:04;;;;;;;1999.90;999.90;;;;;;;10.04;100.00;95704.44;4980813;28;20633;-62
2023/05/19 00:06:31;;;;;;;1999.90;999.90;;;;;;;10.09;100.00;95701.34;4996940;28;20198;-63
2023/05/19 00:09:05;;;;;;;1999.90;999.90;;;;;;;10.04;100.00;95702.50;4980442;28;20275;-63
2023/05/19 00:11:36;;;;;;;1999.90;999.90;;;;;;;9.95;100.00;95712.25;4997207;28;20223;-62
2023/05/19 00:14:04;;;;;;;1999.90;999.90;;;;;;;9.90;100.00;95699.78;4996211;28;20225;-63
2023/05/19 00:16:30;;;;;;;1999.90;999.90;;;;;;;9.85;100.00;95692.00;4996149;28;20237;-63
2023/05/19 00:19:00;;;;;;;1999.90;999.90;;;;;;;9.92;100.00;95683.78;4995846;28;20258;-63
2023/05/19 00:21:26;;;;;;;1999.90;999.90;;;;;;;10.00;100.00;95682.63;4995688;28;20302;-63
2023/05/19 00:23:51;;;;;;;1999.90;999.90;;;;;;;9.95;100.00;95680.28;4979616;28;20226;-63
2023/05/19 00:26:17;;;;;;;1999.90;999.90;;;;;;;9.87;100.00;95684.19;4995609;28;20206;-62
2023/05/19 00:28:43;;;;;;;1999.90;999.90;;;;;;;9.87;100.00;95677.97;4979373;28;20225;-63
2023/05/19 00:31:08;;;;;;;1999.90;999.90;;;;;;;9.85;100.00;95672.91;4995517;28;20202;-63
2023/05/19 00:33:33;;;;;;;1999.90;999.90;;;;;;;9.78;100.00;95663.94;4995602;28;20216;-62
2023/05/19 00:36:02;;;;;;;1999.90;999.90;;;;;;;9.87;100.00;95664.31;4995050;28;20196;-61
2023/05/19 00:38:29;;;;;;;1999.90;999.90;;;;;;;9.85;100.00;95663.94;4995265;28;20208;-61
2023/05/19 00:40:55;;;;;;;1999.90;999.90;;;;;;;9.88;100.00;95663.16;4995847;28;20211;-61
2023/05/19 00:43:20;;;;;;;1999.90;999.90;;;;;;;9.90;100.00;95658.88;4996029;28;20217;-62
2023/05/19 00:45:45;;;;;;;1999.90;999.90;;;;;;;9.91;100.00;95654.97;4980037;28;20224;-62
2023/05/19 00:48:11;;;;;;;1999.90;999.90;;;;;;;9.90;100.00;95658.09;4996254;28;20197;-62
2023/05/19 00:50:36;;;;;;;1999.90;999.90;;;;;;;9.95;100.00;95653.00;4996308;28;20209;-61
2023/05/19 00:53:02;;;;;;;1999.90;999.90;;;;;;;10.00;100.00;95643.66;4996038;28;20202;-62
2023/05/19 00:55:30;;;;;;;1999.90;999.90;;;;;;;9.99;100.00;95648.31;4995953;28;20261;-62
2023/05/19 00:57:56;;;;;;;1999.90;999.90;;;;;;;10.01;100.00;95643.25;4995803;28;20218;-62
2023/05/19 01:00:21;;;;;;;1999.90;999.90;;;;;;;10.01;100.00;95650.66;4996136;28;20235;-62
2023/05/19 01:02:49;;;;;;;1999.90;999.90;;;;;;;9.93;100.00;95639.00;4979788;28;20232;-61
2023/05/19 01:05:15;;;;;;;1999.90;999.90;;;;;;;10.00;100.00;95639.00;4996178;28;20291;-62
2023/05/19 01:07:41;;;;;;;1999.90;999.90;;;;;;;9.89;100.00;95637.44;4995828;28;20204;-62
2023/05/19 01:10:06;;;;;;;1999.90;999.90;;;;;;;9.85;100.00;95637.47;4996274;28;20257;-62
2023/05/19 01:12:32;;;;;;;1999.90;999.90;;;;;;;9.89;100.00;95632.78;4996238;28;20227;-62
2023/05/19 01:14:58;;;;;;;1999.90;999.90;;;;;;;9.79;100.00;95639.00;4996094;28;20204;-62
2023/05/19 01:17:43;;;;;;;1999.90;999.90;;;;;;;9.82;100.00;95643.69;4996024;28;20216;-62
2023/05/19 01:20:24;;;;;;;1999.90;999.90;;;;;;;9.83;100.00;95634.34;4995455;28;20199;-62
2023/05/19 01:23:35;;;;;;;1999.90;999.90;;;;;;;9.87;100.00;95629.66;4979405;28;20198;-62
2023/05/19 01:26:31;;;;;;;1999.90;999.90;;;;;;;9.86;100.00;95636.28;4979995;28;20295;-61
2023/05/19 01:28:57;;;;;;;1999.90;999.90;;;;;;;9.87;100.00;95621.47;4995288;28;20235;-62
2023/05/19 01:31:24;;;;;;;1999.90;999.90;;;;;;;9.97;100.00;95623.41;4995436;28;20197;-62
2023/05/19 01:33:52;;;;;;;1999.90;999.90;;;;;;;9.90;100.00;95628.88;4995276;28;20213;-62
2023/05/19 01:36:20;;;;;;;1999.90;999.90;;;;;;;9.88;100.00;95620.28;4978996;28;20219;-62
2023/05/19 01:38:49;;;;;;;1999.90;999.90;;;;;;;9.80;100.00;95628.91;4995273;28;20215;-62
2023/05/19 01:41:15;;;;;;;1999.90;999.90;;;;;;;9.83;100.00;95623.44;4979407;28;20207;-62
2023/05/19 01:43:41;;;;;;;1999.90;999.90;;;;;;;9.81;100.00;95619.53;4994917;28;20222;-63
2023/05/19 01:46:07;;;;;;;1999.90;999.90;;;;;;;9.72;100.00;95622.66;4979283;28;20236;-62
2023/05/19 01:48:33;;;;;;;1999.90;999.90;;;;;;;9.78;100.00;95615.66;4995663;28;20209;-62
2023/05/19 01:50:58;;;;;;;1999.90;999.90;;;;;;;9.17;100.00;95610.63;4995097;28;20233;-62
2023/05/19 01:53:24;;;;;;;1999.90;999.90;;;;;;;9.72;100.00;95602.78;4995025;28;20212;-62
2023/05/19 01:55:52;;;;;;;1999.90;999.90;;;;;;;9.85;100.00;95604.72;4994923;28;20199;-62
2023/05/19 01:58:57;;;;;;;1999.90;999.90;;;;;;;9.80;100.00;95604.34;4995026;28;20240;-62
2023/05/19 02:01:32;;;;;;;1999.90;999.90;;;;;;;9.80;100.00;95613.28;4978803;28;20686;-62
2023/05/19 02:04:22;;;;;;;1999.90;999.90;;;;;;;9.75;100.00;95605.53;4978319;28;20200;-62
2023/05/19 02:07:12;;;;;;;1999.90;999.90;;;;;;;9.70;100.00;95603.19;4978405;28;20216;-62
2023/05/19 02:10:13;;;;;;;1999.90;999.90;;;;;;;9.71;100.00;95596.56;4994523;28;20217;-62
2023/05/19 02:12:39;;;;;;;1999.90;999.90;;;;;;;9.70;100.00;95586.06;4994561;28;20258;-61
2023/05/19 02:15:20;;;;;;;1999.90;999.90;;;;;;;9.65;100.00;95584.50;4994511;28;20215;-62
2023/05/19 02:17:49;;;;;;;1999.90;999.90;;;;;;;9.65;100.00;95587.22;4978482;28;20307;-62
2023/05/19 02:20:15;;;;;;;1999.90;999.90;;;;;;;9.65;100.00;95581.78;4994824;28;20215;-61
2023/05/19 02:22:40;;;;;;;1999.90;999.90;;;;;;;9.74;100.00;95576.69;4995038;28;20203;-62
2023/05/19 02:25:07;;;;;;;1999.90;999.90;;;;;;;9.68;100.00;95577.47;4994319;28;20205;-63
2023/05/19 02:27:37;;;;;;;1999.90;999.90;;;;;;;9.70;100.00;95570.44;4994660;28;20208;-62
2023/05/19 02:30:03;;;;;;;1999.90;999.90;;;;;;;9.68;100.00;95578.25;4994374;28;20208;-62
2023/05/19 02:32:29;;;;;;;1999.90;999.90;;;;;;;9.70;100.00;95565.00;4994879;28;20210;-62
2023/05/19 02:34:55;;;;;;;1999.90;999.90;;;;;;;9.80;100.00;95569.66;4994207;28;20203;-62
2023/05/19 02:37:22;;;;;;;1999.90;999.90;;;;;;;9.75;100.00;95567.34;4994335;28;20332;-62
2023/05/19 02:39:48;;;;;;;1999.90;999.90;;;;;;;9.63;100.00;95562.31;4994134;28;20210;-62
2023/05/19 02:42:16;;;;;;;1999.90;999.90;;;;;;;9.64;100.00;95566.59;4994155;28;20295;-62
2023/05/19 02:44:42;;;;;;;1999.90;999.90;;;;;;;9.57;100.00;95561.16;4994625;28;20270;-62
2023/05/19 02:47:07;;;;;;;1999.90;999.90;;;;;;;9.53;100.00;95560.38;4994498;28;20202;-62
2023/05/19 02:49:35;;;;;;;1999.90;999.90;;;;;;;9.52;100.00;95553.38;4978239;28;20206;-62
2023/05/19 02:52:02;;;;;;;1999.90;999.90;;;;;;;9.55;100.00;95547.13;4994560;28;20202;-62
2023/05/19 02:54:31;;;;;;;1999.90;999.90;;;;;;;9.46;100.00;95541.31;4993993;28;20216;-62
2023/05/19 02:56:57;;;;;;;1999.90;999.90;;;;;;;9.45;100.00;95542.47;4994255;28;20216;-62
2023/05/19 02:59:23;;;;;;;1999.90;999.90;;;;;;;9.55;100.00;95533.50;4996915;28;20226;-62
2023/05/19 03:01:49;;;;;;;1999.90;999.90;;;;;;;9.54;100.00;95537.38;4998320;28;20200;-62
2023/05/19 03:04:14;;;;;;;1999.90;999.90;;;;;;;9.41;100.00;95530.81;4981776;28;20230;-62
2023/05/19 03:06:41;;;;;;;1999.90;999.90;;;;;;;9.36;100.00;95523.00;4998743;28;20207;-62
2023/05/19 03:09:07;;;;;;;1999.90;999.90;;;;;;;9.31;100.00;95512.53;4982148;28;20202;-62
2023/05/19 03:11:32;;;;;;;1999.90;999.90;;;;;;;9.39;100.00;95513.28;4998502;28;20188;-61
2023/05/19 03:13:57;;;;;;;1999.90;999.90;;;;;;;9.45;100.00;95520.69;4998410;28;20656;-61
2023/05/19 03:16:23;;;;;;;1999.90;999.90;;;;;;;9.40;100.00;95514.84;4998180;28;20208;-61
2023/05/19 03:18:49;;;;;;;1999.90;999.90;;;;;;;9.40;100.00;95515.59;4997571;28;20275;-61
2023/05/19 03:21:15;;;;;;;1999.90;999.90;;;;;;;9.39;100.00;95513.28;4981680;28;20251;-62
2023/05/19 03:23:40;;;;;;;1999.90;999.90;;;;;;;9.40;100.00;95512.88;4981553;28;20235;-61
2023/05/19 03:26:05;;;;;;;1999.90;999.90;;;;;;;9.40;100.00;95510.16;4997787;28;20222;-60
2023/05/19 03:28:31;;;;;;;1999.90;999.90;;;;;;;9.42;100.00;95507.84;4997823;28;20286;-62
2023/05/19 03:30:56;;;;;;;1999.90;999.90;;;;;;;9.42;100.00;95499.66;4997525;28;20228;-61
2023/05/19 03:33:22;;;;;;;1999.90;999.90;;;;;;;9.33;100.00;95493.81;4997810;28;20224;-60
2023/05/19 03:35:48;;;;;;;1999.90;999.90;;;;;;;9.45;100.00;95487.97;4981430;28;20204;-61
2023/05/19 03:38:13;;;;;;;1999.90;999.90;;;;;;;9.41;100.00;95489.94;4997274;28;20230;-60
2023/05/19 03:40:40;;;;;;;1999.90;999.90;;;;;;;9.40;100.00;95490.31;4997535;28;20223;-60
2023/05/19 03:43:06;;;;;;;1999.90;999.90;;;;;;;9.35;100.00;95483.31;4997228;28;20246;-59
2023/05/19 03:45:31;;;;;;;1999.90;999.90;;;;;;;9.37;100.00;95480.97;4998006;28;20315;-59
2023/05/19 03:47:56;;;;;;;1999.90;999.90;;;;;;;9.40;100.00;95474.72;4997279;28;20212;-62
2023/05/19 03:50:22;;;;;;;1999.90;999.90;;;;;;;9.42;100.00;95472.41;4997317;28;20209;-61
2023/05/19 03:52:47;;;;;;;1999.90;999.90;;;;;;;9.36;100.00;95473.97;4981047;28;20205;-62
2023/05/19 03:55:13;;;;;;;1999.90;999.90;;;;;;;9.37;100.00;95480.19;4997272;28;20290;-61
2023/05/19 03:57:40;;;;;;;1999.90;999.90;;;;;;;9.47;100.00;95468.50;4997058;28;20213;-62
2023/05/19 04:00:06;;;;;;;1999.90;999.90;;;;;;;9.43;100.00;95473.94;4997388;28;20203;-61
2023/05/19 04:02:32;;;;;;;1999.90;999.90;;;;;;;9.39;100.00;95475.91;4996912;28;20210;-62
2023/05/19 04:04:57;;;;;;;1999.90;999.90;;;;;;;9.43;100.00;95473.94;4980946;28;20212;-62
2023/05/19 04:07:22;;;;;;;1999.90;999.90;;;;;;;9.49;100.00;95472.38;4997348;28;20215;-61
2023/05/19 04:09:48;;;;;;;1999.90;999.90;;;;;;;9.52;100.00;95471.59;4995601;28;20208;-62
2023/05/19 04:12:14;;;;;;;1999.90;999.90;;;;;;;9.61;100.00;95463.78;4996849;28;20197;-62
2023/05/19 04:14:39;;;;;;;1999.90;999.90;;;;;;;9.59;100.00;95466.09;4980698;28;20189;-62
2023/05/19 04:17:05;;;;;;;1999.90;999.90;;;;;;;9.67;100.00;95464.94;4997649;28;20276;-62
2023/05/19 04:19:30;;;;;;;1999.90;999.90;;;;;;;9.70;100.00;95477.75;4997526;28;20203;-62
2023/05/19 04:21:55;;;;;;;1999.90;999.90;;;;;;;9.70;100.00;95487.91;4996491;28;20300;-62
2023/05/19 04:24:21;;;;;;;1999.90;999.90;;;;;;;9.66;100.00;95479.72;4980792;28;20204;-61
2023/05/19 04:26:46;;;;;;;1999.90;999.90;;;;;;;9.58;100.00;95485.59;4996432;28;20334;-63
2023/05/19 04:29:12;;;;;;;1999.90;999.90;;;;;;;9.65;100.00;95480.88;4996548;28;20204;-62
2023/05/19 04:31:39;;;;;;;1999.90;999.90;;;;;;;9.59;100.00;95477.00;4997100;28;20205;-62
2023/05/19 04:34:06;;;;;;;1999.90;999.90;;;;;;;9.66;100.00;95482.44;4980400;28;20216;-62
2023/05/19 04:36:32;;;;;;;1999.90;999.90;;;;;;;9.66;100.00;95484.41;4996470;28;20645;-61
2023/05/19 04:39:01;;;;;;;1999.90;999.90;;;;;;;9.67;100.00;95488.69;4996738;28;20224;-62
2023/05/19 04:41:27;;;;;;;1999.90;999.90;;;;;;;9.76;100.00;95481.63;4996540;28;20214;-63
2023/05/19 04:43:52;;;;;;;1999.90;999.90;;;;;;;9.72;100.00;95491.78;4996487;28;20199;-63
2023/05/19 04:46:23;;;;;;;1999.90;999.90;;;;;;;9.81;100.00;95483.94;4980634;28;20204;-62
2023/05/19 04:48:49;;;;;;;1999.90;999.90;;;;;;;9.85;100.00;95484.72;4996116;28;20247;-62
2023/05/19 04:51:16;;;;;;;1999.90;999.90;;;;;;;9.99;100.00;95490.09;4980297;28;20209;-62
2023/05/19 04:53:42;;;;;;;1999.90;999.90;;;;;;;10.01;100.00;95492.44;4996028;28;20203;-62
2023/05/19 04:56:08;;;;;;;1999.90;999.90;;;;;;;10.03;100.00;95507.22;4980079;28;20204;-62
2023/05/19 04:58:34;;;;;;;1999.90;999.90;;;;;;;9.94;100.00;95492.47;4979729;28;20238;-62
2023/05/19 05:00:59;;;;;;;1999.90;999.90;;;;;;;10.01;100.00;95489.69;4996041;28;20195;-62
2023/05/19 05:03:25;;;;;;;1999.90;999.90;;;;;;;10.17;100.00;95494.72;4979644;28;20202;-62
2023/05/19 05:05:51;;;;;;;1999.90;999.90;;;;;;;10.23;100.00;95493.91;4995842;28;20211;-65
2023/05/19 05:08:21;;;;;;;1999.90;999.90;;;;;;;10.39;100.00;95507.09;4996001;28;20235;-62
2023/05/19 05:10:49;;;;;;;1999.90;999.90;;;;;;;10.95;100.00;95502.03;4995783;28;20255;-61
2023/05/19 05:13:15;;;;;;;1999.90;999.90;;;;;;;11.44;100.00;95522.69;4996158;28;20205;-60
2023/05/19 05:15:40;;;;;;;1999.90;999.90;;;;;;;11.04;100.00;95556.97;4995518;28;20198;-62
2023/05/19 05:18:06;;;;;;;1999.90;999.90;;;;;;;11.02;100.00;95561.28;4995509;28;20308;-63
2023/05/19 05:20:32;;;;;;;1999.90;999.90;;;;;;;11.03;100.00;95569.09;4995390;28;20219;-62
2023/05/19 05:22:58;;;;;;;1999.90;999.90;;;;;;;10.97;100.00;95561.72;4995222;28;20203;-65
2023/05/19 05:25:23;;;;;;;1999.90;999.90;;;;;;;11.37;100.00;95559.06;4995724;28;20199;-62
2023/05/19 05:27:48;;;;;;;1999.90;999.90;;;;;;;11.91;100.00;95557.41;4995668;28;20314;-62
2023/05/19 05:30:14;;;;;;;1999.90;999.90;;;;;;;12.41;100.00;95585.75;4979192;28;20208;-62
2023/05/19 05:32:39;;;;;;;1999.90;999.90;;;;;;;13.27;100.00;95587.72;4995542;28;20266;-62
2023/05/19 05:35:05;;;;;;;1999.90;999.90;;;;;;;13.42;100.00;95597.28;4979213;28;20200;-63
2023/05/19 05:37:30;;;;;;;1999.90;999.90;;;;;;;13.37;100.00;95607.97;4995368;28;20211;-62
2023/05/19 05:39:56;;;;;;;1999.90;999.90;;;;;;;13.29;100.00;95613.56;4995592;28;20199;-63
2023/05/19 05:42:21;;;;;;;1999.90;999.90;;;;;;;13.26;100.00;95624.59;4995339;28;20184;-63
2023/05/19 05:44:46;;;;;;;1999.90;999.90;;;;;;;12.99;100.00;95621.03;4995099;28;20250;-61
2023/05/19 05:47:12;;;;;;;1999.90;999.90;;;;;;;13.34;100.00;95626.03;4995502;28;20295;-62
2023/05/19 05:49:39;;;;;;;1999.90;999.90;;;;;;;13.24;100.00;95632.44;4995339;28;20212;-62
2023/05/19 05:52:06;;;;;;;1999.90;999.90;;;;;;;13.94;100.00;95638.75;4979459;28;20231;-63
2023/05/19 05:54:32;;;;;;;1999.90;999.90;;;;;;;14.53;100.00;95632.19;4994830;28;20204;-64
2023/05/19 05:56:58;;;;;;;1999.90;999.90;;;;;;;14.35;100.00;95629.00;4994701;28;20212;-63
2023/05/19 05:59:23;;;;;;;1999.90;999.90;;;;;;;15.67;100.00;95634.84;4994972;28;20215;-64
2023/05/19 06:01:49;;;;;;;1999.90;999.90;;;;;;;16.08;100.00;95638.53;4994873;28;20195;-63
2023/05/19 06:04:14;;;;;;;1999.90;999.90;;;;;;;15.79;100.00;95634.94;4995038;28;20199;-69
2023/05/19 06:06:40;;;;;;;1999.90;999.90;;;;;;;14.94;100.00;95632.53;4994769;28;20192;-61
2023/05/19 06:09:06;;;;;;;1999.90;999.90;;;;;;;14.48;100.00;95638.19;4995024;28;20238;-61
2023/05/19 06:11:31;;;;;;;1999.90;999.90;;;;;;;14.43;100.00;95630.44;4994604;28;20204;-63
2023/05/19 06:13:56;;;;;;;1999.90;999.90;;;;;;;13.81;100.00;95633.13;4995254;28;20263;-63
2023/05/19 06:16:22;;;;;;;1999.90;999.90;;;;;;;13.01;100.00;95641.38;4994944;28;20207;-63
2023/05/19 06:18:47;;;;;;;1999.90;999.90;;;;;;;13.02;100.00;95626.50;4994623;28;20259;-62
2023/05/19 06:21:13;;;;;;;1999.90;999.90;;;;;;;13.55;100.00;95633.91;4994597;28;20200;-61
2023/05/19 06:23:39;;;;;;;1999.90;999.90;;;;;;;14.33;100.00;95631.41;4994834;28;20203;-63
2023/05/19 06:26:05;;;;;;;1999.90;999.90;;;;;;;13.88;100.00;95637.69;4994262;28;20211;-64
2023/05/19 06:28:31;;;;;;;1999.90;999.90;;;;;;;14.23;100.00;95637.09;4978151;28;20203;-62
2023/05/19 06:30:57;;;;;;;1999.90;999.90;;;;;;;14.33;100.00;95634.16;4978025;28;20206;-63
2023/05/19 06:33:22;;;;;;;1999.90;999.90;;;;;;;15.05;100.00;95638.56;4994076;28;20290;-62
2023/05/19 06:35:48;;;;;;;1999.90;999.90;;;;;;;15.02;100.00;95633.94;4978279;28;20260;-62
2023/05/19 06:38:13;;;;;;;1999.90;999.90;;;;;;;14.39;100.00;95629.72;4994457;28;20294;-62
2023/05/19 06:40:39;;;;;;;1999.90;999.90;;;;;;;15.12;100.00;95635.66;4994404;28;20204;-61
2023/05/19 06:43:04;;;;;;;1999.90;999.90;;;;;;;14.36;100.00;95641.56;4993960;28;20210;-61
2023/05/19 06:45:30;;;;;;;1999.90;999.90;;;;;;;14.51;100.00;95642.84;4994287;28;20302;-63
2023/05/19 06:47:57;;;;;;;1999.90;999.90;;;;;;;14.49;100.00;95639.75;4994505;28;20257;-62
2023/05/19 06:50:22;;;;;;;1999.90;999.90;;;;;;;14.42;100.00;95639.13;4994851;28;20252;-62
2023/05/19 06:52:48;;;;;;;1999.90;999.90;;;;;;;14.20;100.00;95638.69;4994002;28;20243;-62
2023/05/19 06:55:13;;;;;;;1999.90;999.90;;;;;;;14.75;100.00;95641.56;4993900;28;20243;-62
2023/05/19 06:57:38;;;;;;;1999.90;999.90;;;;;;;15.43;100.00;95636.97;4977898;28;20230;-62
2023/05/19 07:00:08;;;;;;;1999.90;999.90;;;;;;;15.11;100.00;95653.38;4993946;28;20207;-62
2023/05/19 07:02:33;;;;;;;1999.90;999.90;;;;;;;14.62;100.00;95643.41;4977989;28;20204;-62
2023/05/19 07:04:58;;;;;;;1999.90;999.90;;;;;;;15.19;100.00;95649.28;4993772;28;20195;-62
2023/05/19 07:07:25;;;;;;;1999.90;999.90;;;;;;;15.81;100.00;95645.53;4994118;28;20350;-62
2023/05/19 07:09:50;;;;;;;1999.90;999.90;;;;;;;15.27;100.00;95644.41;4994047;28;20278;-63
2023/05/19 07:12:16;;;;;;;1999.90;999.90;;;;;;;14.94;100.00;95646.28;4993903;28;20219;-63
2023/05/19 07:14:41;;;;;;;1999.90;999.90;;;;;;;14.78;100.00;95640.72;4994455;28;20173;-63
2023/05/19 07:17:06;;;;;;;1999.90;999.90;;;;;;;14.68;100.00;95652.72;4977643;28;20306;-62
2023/05/19 07:19:32;;;;;;;1999.90;999.90;;;;;;;14.83;100.00;95637.47;4994340;28;20290;-62
2023/05/19 07:21:58;;;;;;;1999.90;999.90;;;;;;;14.76;100.00;95637.66;4994006;28;20297;-63
2023/05/19 07:24:23;;;;;;;1999.90;999.90;;;;;;;14.23;100.00;95643.38;4994023;28;20275;-62
2023/05/19 07:26:49;;;;;;;1999.90;999.90;;;;;;;15.05;100.00;95646.81;4993832;28;20231;-60
2023/05/19 07:29:14;;;;;;;1999.90;999.90;;;;;;;15.20;100.00;95634.34;4993824;28;20206;-59
2023/05/19 07:31:39;;;;;;;1999.90;999.90;;;;;;;16.21;100.00;95631.09;4993833;28;20196;-60
2023/05/19 07:34:05;;;;;;;1999.90;999.90;;;;;;;16.93;100.00;95630.75;4977846;28;20200;-62
2023/05/19 07:36:30;;;;;;;1999.90;999.90;;;;;;;17.19;100.00;95629.59;4994077;28;20199;-60
2023/05/19 07:38:56;;;;;;;1999.90;999.90;;;;;;;17.89;100.00;95636.44;4993884;28;20258;-58
2023/05/19 07:41:21;;;;;;;1999.90;999.90;;;;;;;18.15;100.00;95642.72;4993870;28;20275;-60
2023/05/19 07:43:47;;;;;;;1999.90;999.90;;;;;;;18.35;100.00;95632.94;4993576;28;20224;-60
2023/05/19 07:46:12;;;;;;;1999.90;999.90;;;;;;;18.74;100.00;95629.59;4997791;28;20275;-59
2023/05/19 07:48:38;;;;;;;1999.90;999.90;;;;;;;18.15;100.00;95629.66;4997549;28;20238;-59
2023/05/19 07:51:03;;;;;;;1999.90;999.90;;;;;;;17.33;100.00;95627.16;4997692;28;20207;-57
2023/05/19 07:53:28;;;;;;;1999.90;999.90;;;;;;;16.72;100.00;95620.31;4997686;28;20207;-57
2023/05/19 07:55:55;;;;;;;1999.90;999.90;;;;;;;16.11;100.00;95636.91;4981154;28;20254;-58
2023/05/19 07:58:20;;;;;;;1999.90;999.90;;;;;;;15.68;100.00;95628.13;4997124;28;20302;-56
2023/05/19 08:00:46;;;;;;;1999.90;999.90;;;;;;;15.53;100.00;95630.47;4997107;28;20291;-53
2023/05/19 08:03:11;;;;;;;1999.90;999.90;;;;;;;14.84;100.00;95641.78;4997269;28;20208;-57
2023/05/19 08:05:37;;;;;;;1999.90;999.90;;;;;;;14.47;100.00;95633.91;4997214;28;20192;-56
2023/05/19 08:08:03;;;;;;;1999.90;999.90;;;;;;;14.31;100.00;95644.78;4997085;28;20267;-53
2023/05/19 08:10:28;;;;;;;1999.90;999.90;;;;;;;14.47;100.00;95642.16;4980610;28;20203;-55
2023/05/19 08:12:54;;;;;;;1999.90;999.90;;;;;;;14.16;100.00;95634.47;4997008;28;20192;-55
2023/05/19 08:15:20;;;;;;;1999.90;999.90;;;;;;;14.42;100.00;95634.38;4996766;28;20192;-60
2023/05/19 08:17:46;;;;;;;1999.90;999.90;;;;;;;13.83;100.00;95641.69;4997166;28;20286;-58
2023/05/19 08:20:11;;;;;;;1999.90;999.90;;;;;;;14.25;100.00;95646.50;4997000;28;20295;-59
2023/05/19 08:22:37;;;;;;;1999.90;999.90;;;;;;;13.94;100.00;95634.06;4997275;28;20234;-58
2023/05/19 08:25:04;;;;;;;1999.90;999.90;;;;;;;13.38;100.00;95632.22;4980562;28;20196;-62
2023/05/19 08:27:29;;;;;;;1999.90;999.90;;;;;;;13.69;100.00;95630.19;4996843;28;20196;-60
2023/05/19 08:29:56;;;;;;;1999.90;999.90;;;;;;;13.32;100.00;95629.19;4996707;28;20211;-61
2023/05/19 08:32:21;;;;;;;1999.90;999.90;;;;;;;13.33;100.00;95629.94;4996791;28;20255;-61
2023/05/19 08:34:47;;;;;;;1999.90;999.90;;;;;;;13.41;100.00;95631.41;4996504;28;20204;-60
2023/05/19 08:37:12;;;;;;;1999.90;999.90;;;;;;;13.29;100.00;95634.72;4996421;28;20219;-61
2023/05/19 08:39:37;;;;;;;1999.90;999.90;;;;;;;13.27;100.00;95639.84;4996466;28;20247;-62
2023/05/19 08:42:03;;;;;;;1999.90;999.90;;;;;;;13.18;100.00;95628.59;4996489;28;20192;-62
2023/05/19 08:44:29;;;;;;;1999.90;999.90;;;;;;;12.97;100.00;95634.38;4996276;28;20279;-62
2023/05/19 08:46:59;;;;;;;1999.90;999.90;;;;;;;13.07;100.00;95633.47;4996653;28;20230;-60
2023/05/19 08:49:32;;;;;;;1999.90;999.90;;;;;;;12.89;100.00;95621.94;4996674;28;20212;-60
2023/05/19 08:55:32;;;;;;;1999.90;999.90;;;;;;;13.12;100.00;95631.03;5116886;22;20297;-61
2023/05/19 08:57:59;;;;;;;1999.90;999.90;;;;;;;13.03;100.00;95628.03;5025648;28;20223;-59
2023/05/19 09:06:01;;;;;;;1999.90;999.90;;;;;;;12.82;100.00;95624.78;5063613;28;20213;-60
2023/05/19 09:08:28;;;;;;;1999.90;999.90;;;;;;;13.12;100.00;95624.78;5048782;28;20174;-59
2023/05/19 09:10:53;;;;;;;1999.90;999.90;;;;;;;13.07;100.00;95628.75;5049188;28;20204;-60
2023/05/19 09:13:18;;;;;;;1999.90;999.90;;;;;;;13.00;100.00;95637.09;5048624;28;20221;-60
2023/05/19 09:15:44;;;;;;;1999.90;999.90;;;;;;;13.08;100.00;95626.81;5048410;28;20209;-59
2023/05/19 09:18:12;;;;;;;1999.90;999.90;;;;;;;13.18;100.00;95618.41;5048402;28;20213;-57
2023/05/19 09:20:43;;;;;;;1999.90;999.90;;;;;;;13.33;100.00;95624.44;5066091;28;20197;-58
2023/05/19 09:23:12;;;;;;;1999.90;999.90;;;;;;;13.28;100.00;95642.19;5048518;28;20216;-58
2023/05/19 09:25:48;;;;;;;1999.90;999.90;;;;;;;13.42;100.00;95621.19;5066005;28;20261;-56
2023/05/19 09:28:13;;;;;;;1999.90;999.90;;;;;;;13.32;100.00;95629.19;5065171;28;20193;-58
2023/05/19 09:30:38;;;;;;;1999.90;999.90;;;;;;;13.28;100.00;95617.50;5048840;28;20194;-59
2023/05/19 09:33:08;;;;;;;1999.90;999.90;;;;;;;13.36;100.00;95612.66;5048002;28;20265;-58
2023/05/19 09:35:34;;;;;;;1999.90;999.90;;;;;;;13.41;100.00;95625.94;5048121;28;20170;-68
2023/05/19 09:37:59;;;;;;;1999.90;999.90;;;;;;;13.59;100.00;95618.19;5048340;28;20287;-59
2023/05/19 09:40:27;;;;;;;1999.90;999.90;;;;;;;13.90;100.00;95619.63;5048338;28;20197;-59
2023/05/19 09:42:53;;;;;;;1999.90;999.90;;;;;;;13.39;100.00;95617.31;5047993;28;20217;-59
2023/05/19 09:45:19;;;;;;;1999.90;999.90;;;;;;;13.73;100.00;95609.69;5047778;28;20224;-59
2023/05/19 09:47:44;;;;;;;1999.90;999.90;;;;;;;13.98;100.00;95621.03;5064477;28;20193;-59
2023/05/19 09:50:11;;;;;;;1999.90;999.90;;;;;;;13.83;100.00;95617.00;5048161;28;20308;-57
2023/05/19 09:52:37;;;;;;;1999.90;999.90;;;;;;;13.63;100.00;95616.16;5047967;28;20202;-59
2023/05/19 09:55:07;;;;;;;1999.90;999.90;;;;;;;13.52;100.00;95614.78;5047762;28;20265;-56
2023/05/19 09:57:37;;;;;;;1999.90;999.90;;;;;;;13.38;100.00;95621.25;5048014;28;20280;-58
2023/05/19 10:00:14;;;;;;;1999.90;999.90;;;;;;;13.54;100.00;95617.88;5048032;28;20205;-58
2023/05/19 10:02:44;;;;;;;1999.90;999.90;;;;;;;13.57;100.00;95617.03;5047898;28;20243;-58
2023/05/19 10:05:11;;;;;;;1999.90;999.90;;;;;;;13.85;100.00;95614.63;5047625;28;20204;-56
2023/05/19 10:07:39;;;;;;;1999.90;999.90;;;;;;;13.58;100.00;95622.09;5047394;28;20193;-59
2023/05/19 10:10:08;;;;;;;1999.90;999.90;;;;;;;13.60;100.00;95617.00;5064343;28;20217;-58
2023/05/19 10:12:33;;;;;;;1999.90;999.90;;;;;;;13.76;100.00;95613.59;5063860;28;20273;-59
2023/05/19 10:14:59;;;;;;;1999.90;999.90;;;;;;;13.37;100.00;95618.94;5047346;28;20259;-59
2023/05/19 10:17:25;;;;;;;1999.90;999.90;;;;;;;13.42;100.00;95611.00;5047320;28;20276;-58
2023/05/19 10:19:51;;;;;;;1999.90;999.90;;;;;;;13.27;100.00;95615.16;5047299;28;20248;-58
2023/05/19 10:22:17;;;;;;;1999.90;999.90;;;;;;;13.58;100.00;95607.63;5047316;28;20198;-58
2023/05/19 10:24:43;;;;;;;1999.90;999.90;;;;;;;13.89;100.00;95607.09;5047102;28;20206;-58
2023/05/19 10:27:13;;;;;;;1999.90;999.90;;;;;;;13.46;100.00;95610.94;5047110;28;20293;-58
2023/05/19 10:29:41;;;;;;;1999.90;999.90;;;;;;;13.70;100.00;95620.75;5047548;28;20244;-58
2023/05/19 10:32:10;;;;;;;1999.90;999.90;;;;;;;13.74;100.00;95611.28;5047630;28;20244;-58
2023/05/19 10:34:50;;;;;;;1999.90;999.90;;;;;;;14.02;100.00;95605.28;5047363;28;20197;-58
2023/05/19 10:37:30;;;;;;;1999.90;999.90;;;;;;;13.93;100.00;95616.03;5047008;28;20213;-59
2023/05/19 10:39:56;;;;;;;1999.90;999.90;;;;;;;13.84;100.00;95618.53;5047364;28;20193;-60
2023/05/19 10:42:35;;;;;;;1999.90;999.90;;;;;;;13.82;100.00;95612.69;5063743;28;20194;-58
2023/05/19 10:45:09;;;;;;;1999.90;999.90;;;;;;;14.11;100.00;95597.28;5047264;28;20212;-58
2023/05/19 10:47:34;;;;;;;1999.90;999.90;;;;;;;13.90;100.00;95607.84;5046921;28;20239;-59
2023/05/19 10:50:00;;;;;;;1999.90;999.90;;;;;;;13.88;100.00;95594.53;5047366;28;20202;-60
2023/05/19 10:52:25;;;;;;;1999.90;999.90;;;;;;;13.74;100.00;95608.53;5046892;28;20260;-58
2023/05/19 10:54:53;;;;;;;1999.90;999.90;;;;;;;14.01;100.00;95614.72;5046913;28;20197;-58
2023/05/19 10:57:30;;;;;;;1999.90;999.90;;;;;;;13.91;100.00;95596.44;5047002;28;20241;-58
2023/05/19 10:59:56;;;;;;;1999.90;999.90;;;;;;;13.57;100.00;95597.81;5063472;28;20356;-58